Time;durP1;ratioP1;P1;durP2;ratioP2;P2;SDS_P1;SDS_P2;PMS_P1;PMS_P2;Temp;Humidity;BMP_temperature;BMP_pressure;BME280_temperature;BME280_humidity;BME280_pressure;Samples;Min_cycle;Max_cycle;Signal;HPM_P1;HPM_P2
2023/02/28 00:02:37;;;;;;;2.13;1.93;;;4.30;78.20;;;;;;4913026;29;20479;-81
2023/02/28 00:05:13;;;;;;;2.00;1.80;;;4.20;78.30;;;;;;4917048;29;20486;-82
2023/02/28 00:07:44;;;;;;;2.40;2.03;;;4.20;78.40;;;;;;4930418;29;20483;-84
2023/02/28 00:10:39;;;;;;;3.83;1.93;;;4.20;78.40;;;;;;4917322;29;20563;-81
2023/02/28 00:13:22;;;;;;;3.50;1.80;;;4.10;78.60;;;;;;4916761;29;20486;-81
2023/02/28 00:16:16;;;;;;;3.53;2.50;;;4.20;78.60;;;;;;4932274;29;20514;-80
2023/02/28 00:18:47;;;;;;;2.77;2.30;;;4.20;78.40;;;;;;4919509;29;20458;-82
2023/02/28 00:21:26;;;;;;;4.10;2.67;;;4.10;78.60;;;;;;4920236;29;20541;-81
2023/02/28 00:24:02;;;;;;;2.70;1.83;;;4.10;79.80;;;;;;4920262;29;20505;-82
2023/02/28 00:26:34;;;;;;;2.53;1.80;;;4.00;80.50;;;;;;4922329;29;20458;-83
2023/02/28 00:29:11;;;;;;;3.40;2.40;;;4.10;81.20;;;;;;4921143;29;20467;-81
2023/02/28 00:31:47;;;;;;;4.37;2.70;;;3.90;80.90;;;;;;4926444;29;20483;-82
2023/02/28 00:37:22;;;;;;;2.77;2.50;;;4.10;81.70;;;;;;4925078;29;20494;-83
2023/02/28 00:39:57;;;;;;;2.63;2.30;;;4.00;81.10;;;;;;4924834;28;20459;-82
2023/02/28 00:42:34;;;;;;;3.90;2.17;;;4.00;81.10;;;;;;4928842;29;20477;-83
2023/02/28 00:45:14;;;;;;;2.47;2.00;;;4.10;81.20;;;;;;4931017;29;20526;-81
2023/02/28 00:47:51;;;;;;;2.53;1.93;;;4.00;81.40;;;;;;4945330;28;20526;-82
2023/02/28 00:50:50;;;;;;;2.47;1.80;;;4.00;81.50;;;;;;4928175;28;20481;-82
2023/02/28 00:53:25;;;;;;;3.70;2.03;;;4.00;81.60;;;;;;4930645;29;20442;-80
2023/02/28 00:55:56;;;;;;;4.80;1.87;;;4.00;81.70;;;;;;4946202;28;20482;-83
2023/02/28 00:58:28;;;;;;;2.00;1.90;;;4.10;82.10;;;;;;4930368;29;20451;-81
2023/02/28 01:01:08;;;;;;;;;;;;;;;;;;;;;
2023/02/28 01:03:45;;;;;;;1.90;1.70;;;3.90;81.60;;;;;;4927380;29;21146;-82
2023/02/28 01:06:22;;;;;;;3.87;2.20;;;3.90;81.70;;;;;;4919117;29;20475;-82
2023/02/28 01:09:14;;;;;;;4.30;2.17;;;4.00;82.10;;;;;;4928960;29;20455;-82
2023/02/28 01:11:45;;;;;;;2.10;1.90;;;3.90;81.10;;;;;;4929453;29;20469;-80
2023/02/28 01:14:43;;;;;;;3.53;2.13;;;3.90;81.40;;;;;;4916008;29;20554;-80
2023/02/28 01:17:15;;;;;;;2.60;1.60;;;3.80;81.30;;;;;;4909389;29;20473;-80
2023/02/28 01:19:52;;;;;;;4.87;2.37;;;3.80;81.70;;;;;;4911000;29;20495;-81
2023/02/28 01:22:22;;;;;;;3.13;1.80;;;3.70;81.90;;;;;;4909876;29;20488;-81
2023/02/28 01:24:49;;;;;;;2.87;2.23;;;3.70;82.50;;;;;;4919976;29;20487;-81
2023/02/28 01:27:28;;;;;;;1.83;1.73;;;3.70;82.20;;;;;;4929844;29;22361;-83
2023/02/28 01:30:06;;;;;;;2.33;1.93;;;3.70;82.00;;;;;;4929125;29;20485;-81
2023/02/28 01:32:41;;;;;;;6.90;3.27;;;3.60;82.10;;;;;;4921506;29;20481;-81
2023/02/28 01:35:17;;;;;;;3.53;2.43;;;3.70;82.70;;;;;;4935038;28;20573;-80
2023/02/28 01:37:47;;;;;;;2.17;1.87;;;3.70;83.10;;;;;;4910456;29;20497;-80
2023/02/28 01:40:42;;;;;;;5.40;2.40;;;3.70;83.70;;;;;;4910911;29;20475;-81
2023/02/28 01:43:46;;;;;;;3.60;1.83;;;3.80;83.80;;;;;;4891760;29;20625;-82
2023/02/28 01:46:26;;;;;;;2.10;1.90;;;3.70;83.60;;;;;;4913810;29;20510;-83
2023/02/28 01:49:17;;;;;;;1.70;1.60;;;3.80;82.80;;;;;;4913448;29;20465;-82
2023/02/28 01:51:57;;;;;;;3.00;2.37;;;3.70;82.60;;;;;;4916827;29;20576;-82
2023/02/28 01:54:33;;;;;;;4.13;2.67;;;3.70;83.50;;;;;;4919016;29;20479;-79
2023/02/28 01:57:08;;;;;;;2.90;2.60;;;3.70;83.70;;;;;;4930489;29;20537;-82
2023/02/28 01:59:50;;;;;;;2.80;1.90;;;3.70;84.20;;;;;;4930573;29;20522;-82
2023/02/28 02:02:33;;;;;;;4.03;2.30;;;3.70;83.90;;;;;;4913817;29;20473;-80
2023/02/28 02:05:11;;;;;;;2.10;1.90;;;3.70;83.40;;;;;;4925623;29;20477;-81
2023/02/28 02:07:58;;;;;;;4.93;2.20;;;3.70;82.50;;;;;;4909150;29;20461;-82
2023/02/28 02:10:50;;;;;;;2.40;2.20;;;3.70;82.50;;;;;;4911586;29;20459;-81
2023/02/28 02:13:58;;;;;;;4.33;2.33;;;3.60;83.30;;;;;;4908981;29;20557;-82
2023/02/28 02:16:54;;;;;;;2.40;2.07;;;3.70;83.30;;;;;;4926482;29;20462;-82
2023/02/28 02:20:02;;;;;;;1.77;1.67;;;3.60;83.10;;;;;;4911708;29;20467;-81
2023/02/28 02:22:50;;;;;;;4.10;1.80;;;3.60;83.10;;;;;;4911997;29;20518;-82
2023/02/28 02:25:48;;;;;;;2.80;1.87;;;3.50;83.20;;;;;;4911189;29;20477;-81
2023/02/28 02:29:00;;;;;;;1.80;1.70;;;3.50;83.20;;;;;;4910547;29;20494;-81
2023/02/28 02:32:13;;;;;;;3.53;2.03;;;3.60;82.90;;;;;;4909776;29;20467;-83
2023/02/28 02:34:43;;;;;;;2.97;1.80;;;3.60;82.50;;;;;;4914078;29;20479;-82
2023/02/28 02:37:28;;;;;;;3.70;2.07;;;3.60;82.70;;;;;;4915268;29;20473;-82
2023/02/28 02:40:55;;;;;;;2.27;2.03;;;3.60;83.20;;;;;;4928241;29;20462;-82
2023/02/28 02:43:32;;;;;;;3.13;2.10;;;3.50;82.70;;;;;;4913366;29;20490;-81
2023/02/28 02:46:06;;;;;;;2.53;2.00;;;3.50;82.90;;;;;;4927452;28;20533;-82
2023/02/28 02:48:45;;;;;;;2.20;2.00;;;3.70;82.80;;;;;;4928135;29;20489;-81
2023/02/28 02:51:34;;;;;;;2.70;2.13;;;3.80;81.70;;;;;;4924750;29;20466;-81
2023/02/28 02:54:23;;;;;;;2.37;2.17;;;3.70;79.40;;;;;;4911440;29;20471;-83
2023/02/28 02:56:58;;;;;;;2.10;1.83;;;3.50;78.80;;;;;;4911558;29;20504;-82
2023/02/28 02:59:28;;;;;;;2.47;2.10;;;3.50;79.00;;;;;;4931330;29;20504;-82
2023/02/28 03:02:11;;;;;;;2.80;1.93;;;3.50;77.80;;;;;;4933256;29;22188;-81
2023/02/28 03:04:51;;;;;;;2.63;1.97;;;3.30;78.30;;;;;;4917216;29;21424;-80
2023/02/28 03:07:21;;;;;;;2.10;1.90;;;3.40;78.90;;;;;;4915101;29;20470;-80
2023/02/28 03:09:52;;;;;;;2.10;1.80;;;3.40;78.10;;;;;;4918703;29;20487;-81
2023/02/28 03:12:48;;;;;;;2.30;1.87;;;3.50;77.90;;;;;;4911870;29;20462;-82
2023/02/28 03:15:55;;;;;;;2.17;1.97;;;3.40;77.50;;;;;;4909699;29;20521;-81
2023/02/28 03:18:44;;;;;;;3.17;1.67;;;3.50;77.40;;;;;;4915610;29;20949;-83
2023/02/28 03:21:34;;;;;;;2.53;2.10;;;3.50;77.10;;;;;;4913146;29;20462;-82
2023/02/28 03:24:34;;;;;;;2.00;1.90;;;3.40;77.40;;;;;;4916828;29;20484;-81
2023/02/28 03:27:18;;;;;;;1.83;1.73;;;3.40;76.70;;;;;;4915454;29;20514;-83
2023/02/28 03:29:54;;;;;;;2.03;1.93;;;3.40;76.30;;;;;;4928157;29;20468;-82
2023/02/28 03:32:40;;;;;;;2.33;2.10;;;3.30;76.70;;;;;;4927094;29;20561;-82
2023/02/28 03:35:23;;;;;;;2.47;2.00;;;3.10;77.30;;;;;;4917569;29;20482;-82
2023/02/28 03:38:06;;;;;;;2.97;2.40;;;3.20;77.90;;;;;;4919237;29;20529;-82
2023/02/28 03:40:37;;;;;;;2.30;1.90;;;3.30;78.40;;;;;;4914734;29;20462;-80
2023/02/28 03:43:12;;;;;;;2.80;2.20;;;3.40;77.50;;;;;;4914783;29;20459;-81
2023/02/28 03:45:45;;;;;;;1.93;1.80;;;3.30;76.70;;;;;;4912956;29;20493;-81
2023/02/28 03:48:22;;;;;;;3.17;2.67;;;3.50;76.00;;;;;;4915560;29;20478;-82
2023/02/28 03:50:57;;;;;;;3.40;2.23;;;3.40;75.10;;;;;;4914030;29;20451;-83
2023/02/28 03:53:36;;;;;;;2.13;2.00;;;3.40;74.60;;;;;;4926249;29;20461;-83
2023/02/28 03:56:09;;;;;;;1.73;1.63;;;3.30;75.40;;;;;;4912466;29;20546;-82
2023/02/28 03:59:17;;;;;;;2.10;1.90;;;3.40;75.80;;;;;;4927510;29;20459;-82
2023/02/28 04:01:55;;;;;;;3.30;2.37;;;3.50;75.90;;;;;;4923665;29;20571;-81
2023/02/28 04:04:44;;;;;;;2.03;1.80;;;3.30;75.80;;;;;;4924469;29;20487;-79
2023/02/28 04:07:20;;;;;;;2.13;1.93;;;3.10;76.50;;;;;;4930693;29;20464;-82
2023/02/28 04:09:54;;;;;;;2.43;2.23;;;3.20;76.60;;;;;;4932214;28;20532;-83
2023/02/28 04:12:26;;;;;;;2.53;2.13;;;3.20;76.80;;;;;;4932552;28;20465;-81
2023/02/28 04:14:55;;;;;;;3.30;1.93;;;3.30;76.70;;;;;;4932327;29;20501;-81
2023/02/28 04:17:25;;;;;;;2.40;2.07;;;3.40;76.90;;;;;;4945900;28;20463;-82
2023/02/28 04:19:53;;;;;;;2.10;1.90;;;3.20;77.20;;;;;;4931454;29;20451;-82
2023/02/28 04:22:30;;;;;;;5.10;2.20;;;3.00;77.60;;;;;;4904401;29;20514;-81
2023/02/28 04:25:06;;;;;;;3.90;2.30;;;3.00;78.70;;;;;;4923444;29;20494;-82
2023/02/28 04:27:36;;;;;;;3.13;2.27;;;3.00;79.20;;;;;;4926622;29;20529;-82
2023/02/28 04:30:10;;;;;;;2.57;2.37;;;3.00;79.70;;;;;;4909377;29;20500;-83
2023/02/28 04:35:38;;;;;;;2.33;2.13;;;3.20;80.60;;;;;;4929172;29;20474;-82
2023/02/28 04:38:18;;;;;;;2.33;2.07;;;3.20;80.80;;;;;;4916639;29;20573;-82
2023/02/28 04:40:51;;;;;;;2.10;2.00;;;3.20;80.90;;;;;;4904913;29;20494;-81
2023/02/28 04:43:26;;;;;;;2.47;2.27;;;3.20;80.90;;;;;;4906362;29;20463;-82
2023/02/28 04:46:04;;;;;;;3.33;2.03;;;3.20;81.00;;;;;;4905040;29;20549;-82
2023/02/28 04:48:53;;;;;;;4.57;2.23;;;3.10;81.20;;;;;;4907780;29;20463;-83
2023/02/28 04:51:29;;;;;;;3.03;2.17;;;3.10;81.20;;;;;;4922955;29;20470;-82
2023/02/28 04:54:17;;;;;;;1.90;1.80;;;3.00;81.20;;;;;;4916099;29;20462;-81
2023/02/28 05:02:33;;;;;;;2.13;2.03;;;2.90;81.20;;;;;;4955492;28;20985;-80
2023/02/28 05:05:03;;;;;;;3.07;2.23;;;2.80;81.60;;;;;;4950104;28;20493;-81
2023/02/28 05:07:50;;;;;;;2.73;2.00;;;2.70;82.00;;;;;;4950633;28;20453;-81
2023/02/28 05:10:24;;;;;;;3.10;2.33;;;2.80;82.30;;;;;;4953004;28;20483;-83
2023/02/28 05:12:56;;;;;;;2.20;1.87;;;2.80;82.20;;;;;;4949998;28;20449;-82
2023/02/28 05:15:31;;;;;;;2.27;2.07;;;2.80;81.80;;;;;;4933177;28;20488;-80
2023/02/28 05:18:24;;;;;;;3.13;2.20;;;2.70;81.90;;;;;;4939014;28;20842;-84
2023/02/28 05:20:54;;;;;;;4.50;2.40;;;2.60;82.40;;;;;;4950149;28;20465;-82
2023/02/28 05:23:34;;;;;;;4.80;2.93;;;2.60;82.50;;;;;;4955563;28;20465;-83
2023/02/28 05:26:21;;;;;;;2.90;2.70;;;2.80;83.40;;;;;;4940022;28;20487;-80
2023/02/28 05:32:07;;;;;;;2.63;2.43;;;2.80;82.20;;;;;;4954645;28;20516;-82
2023/02/28 05:34:57;;;;;;;3.73;2.47;;;2.80;82.50;;;;;;4942579;28;20557;-83
2023/02/28 05:37:56;;;;;;;2.37;2.17;;;2.70;82.50;;;;;;4946622;28;20470;-83
2023/02/28 05:40:43;;;;;;;2.70;2.50;;;2.70;81.80;;;;;;4955798;28;20467;-83
2023/02/28 05:43:23;;;;;;;2.93;2.57;;;2.70;82.10;;;;;;4949362;28;20487;-82
2023/02/28 05:46:17;;;;;;;3.10;2.10;;;2.70;82.50;;;;;;4927626;28;20491;-84
2023/02/28 05:49:07;;;;;;;2.43;2.10;;;2.70;81.90;;;;;;4936638;28;20464;-82
2023/02/28 05:52:05;;;;;;;2.90;2.70;;;2.60;80.80;;;;;;4933772;28;20604;-82
2023/02/28 05:54:37;;;;;;;2.33;2.13;;;2.70;81.50;;;;;;4937107;28;21029;-83
2023/02/28 05:57:18;;;;;;;2.63;2.03;;;2.80;80.90;;;;;;4940795;28;20551;-82
2023/02/28 05:59:53;;;;;;;3.33;2.47;;;2.80;80.40;;;;;;4946073;28;20540;-81
2023/02/28 06:02:31;;;;;;;2.27;2.07;;;2.80;79.20;;;;;;4929037;28;20641;-82
2023/02/28 06:05:25;;;;;;;3.20;2.93;;;2.80;78.90;;;;;;4935760;28;20502;-82
2023/02/28 06:08:28;;;;;;;2.30;2.20;;;2.60;79.60;;;;;;4933390;28;20453;-82
2023/02/28 06:11:30;;;;;;;;;;;;;;;;;;;;;
2023/02/28 06:14:30;;;;;;;2.43;2.23;;;2.70;78.90;;;;;;4922507;28;20580;-80
2023/02/28 06:17:53;;;;;;;3.30;2.30;;;2.80;78.20;;;;;;4946627;28;20488;-82
2023/02/28 06:20:55;;;;;;;2.60;2.40;;;2.60;78.30;;;;;;4935674;29;20489;-82
2023/02/28 06:23:35;;;;;;;3.07;2.60;;;2.80;78.70;;;;;;4934573;28;20473;-82
2023/02/28 06:26:18;;;;;;;2.70;2.50;;;2.90;78.40;;;;;;4925730;28;21942;-82
2023/02/28 06:29:02;;;;;;;4.40;2.23;;;2.90;78.00;;;;;;4952871;28;20467;-83
2023/02/28 06:31:44;;;;;;;2.47;2.27;;;2.80;78.00;;;;;;4936026;28;20508;-83
2023/02/28 06:34:42;;;;;;;4.70;3.40;;;2.80;78.10;;;;;;4960584;28;20480;-82
2023/02/28 06:37:38;;;;;;;2.70;2.50;;;2.80;78.20;;;;;;4936418;28;20475;-83
2023/02/28 06:40:34;;;;;;;2.63;2.40;;;2.80;77.90;;;;;;4926418;28;20463;-81
2023/02/28 06:46:41;;;;;;;3.40;2.67;;;2.80;78.20;;;;;;4951311;29;20469;-83
2023/02/28 06:49:16;;;;;;;4.53;2.90;;;2.90;77.80;;;;;;4949528;29;21053;-83
2023/02/28 06:51:57;;;;;;;2.70;2.53;;;3.00;76.70;;;;;;4946648;29;20536;-82
2023/02/28 06:54:45;;;;;;;3.43;2.63;;;3.00;76.70;;;;;;4947795;29;20703;-82
2023/02/28 06:57:30;;;;;;;;;;;;;;;;;;;;;
2023/02/28 07:00:09;;;;;;;2.73;1.90;;;3.10;76.50;;;;;;4953283;28;20456;-81
2023/02/28 07:02:42;;;;;;;2.80;2.27;;;3.20;75.60;;;;;;4939707;29;20475;-81
2023/02/28 07:05:52;;;;;;;4.30;2.40;;;3.00;74.90;;;;;;4936205;29;20490;-81
2023/02/28 07:08:40;;;;;;;2.37;2.17;;;3.10;75.40;;;;;;4916808;29;20441;-81
2023/02/28 07:11:16;;;;;;;3.07;2.40;;;3.20;75.80;;;;;;4962492;29;20461;-81
2023/02/28 07:16:57;;;;;;;3.10;2.57;;;3.10;75.00;;;;;;4959495;28;20500;-83
2023/02/28 07:20:08;;;;;;;3.47;2.83;;;3.10;74.80;;;;;;4958268;28;20459;-81
2023/02/28 07:22:57;;;;;;;3.53;3.27;;;3.20;75.60;;;;;;4964478;28;20449;-82
2023/02/28 07:28:36;;;;;;;2.50;2.30;;;3.40;73.70;;;;;;5124204;23;20518;-83
2023/02/28 07:31:19;;;;;;;2.50;2.30;;;3.70;73.80;;;;;;4986123;28;20917;-81
2023/02/28 07:33:56;;;;;;;8.63;2.53;;;6.00;71.60;;;;;;4986545;28;20539;-82
2023/02/28 07:36:42;;;;;;;3.13;2.50;;;9.20;59.10;;;;;;4973036;28;20518;-83
2023/02/28 07:39:36;;;;;;;5.90;3.33;;;11.20;52.10;;;;;;4940705;28;20459;-82
2023/02/28 07:42:41;;;;;;;2.73;2.53;;;12.30;46.90;;;;;;4935956;28;20499;-80
2023/02/28 07:45:28;;;;;;;2.50;2.30;;;12.70;44.40;;;;;;4903253;29;20518;-82
2023/02/28 07:48:16;;;;;;;4.77;3.20;;;13.10;43.10;;;;;;4920615;29;20494;-81
2023/02/28 07:51:21;;;;;;;2.57;2.37;;;14.00;41.70;;;;;;4917049;29;20506;-82
2023/02/28 07:57:25;;;;;;;2.90;2.70;;;13.80;39.40;;;;;;4912222;29;20478;-80
2023/02/28 08:00:15;;;;;;;2.70;2.50;;;11.70;40.00;;;;;;4907844;29;20467;-83
2023/02/28 08:03:06;;;;;;;4.10;2.70;;;10.70;42.60;;;;;;4901940;29;20463;-82
2023/02/28 08:05:44;;;;;;;2.60;2.40;;;10.20;43.50;;;;;;4905540;29;21251;-81
2023/02/28 08:08:57;;;;;;;2.73;2.50;;;9.70;45.30;;;;;;4907828;29;20459;-81
2023/02/28 08:11:42;;;;;;;5.80;4.30;;;8.90;45.80;;;;;;4922553;29;20490;-83
2023/02/28 08:14:18;;;;;;;2.57;2.10;;;8.90;47.50;;;;;;4908207;29;20486;-81
2023/02/28 08:17:19;;;;;;;2.17;2.00;;;8.70;46.30;;;;;;4955842;28;20468;-83
2023/02/28 08:20:10;;;;;;;3.33;2.50;;;8.40;45.80;;;;;;4959925;28;20703;-82
2023/02/28 08:22:48;;;;;;;1.90;1.80;;;7.00;46.60;;;;;;4973116;28;20494;-82
2023/02/28 08:25:39;;;;;;;2.03;1.87;;;6.20;48.20;;;;;;4964717;28;20498;-81
2023/02/28 08:29:04;;;;;;;4.37;2.27;;;5.70;49.50;;;;;;4956406;28;20559;-83
2023/02/28 08:35:08;;;;;;;3.43;1.67;;;5.20;50.90;;;;;;4964425;28;20472;-82
2023/02/28 08:37:43;;;;;;;2.23;1.77;;;5.00;51.20;;;;;;4961282;28;20574;-83
2023/02/28 08:40:18;;;;;;;1.53;1.43;;;5.00;51.10;;;;;;4963935;28;20467;-82
2023/02/28 08:42:55;;;;;;;1.83;1.70;;;5.10;51.70;;;;;;4964398;28;20459;-80
2023/02/28 08:45:31;;;;;;;1.67;1.57;;;5.10;51.60;;;;;;4949133;28;20600;-82
2023/02/28 08:48:09;;;;;;;2.10;1.63;;;5.00;51.50;;;;;;4968569;28;20480;-82
2023/02/28 08:50:51;;;;;;;2.60;1.90;;;4.90;51.20;;;;;;4965132;28;20527;-83
2023/02/28 08:53:35;;;;;;;1.50;1.40;;;4.90;51.20;;;;;;4950111;28;20444;-82
2023/02/28 08:56:21;;;;;;;3.13;1.83;;;5.10;51.20;;;;;;4947703;28;20594;-80
2023/02/28 08:58:51;;;;;;;1.10;1.10;;;5.10;50.40;;;;;;4949572;28;20479;-81
2023/02/28 09:01:38;;;;;;;1.60;1.50;;;5.10;50.70;;;;;;4967693;28;21179;-80
2023/02/28 09:04:26;;;;;;;1.47;1.37;;;5.10;50.30;;;;;;4967253;28;20448;-82
2023/02/28 09:07:12;;;;;;;2.93;1.10;;;5.20;49.70;;;;;;4951394;28;20472;-82
2023/02/28 09:09:53;;;;;;;1.50;1.40;;;5.20;50.10;;;;;;4948555;28;21071;-82
2023/02/28 09:12:37;;;;;;;1.70;1.60;;;5.10;49.80;;;;;;4950304;28;20523;-82
2023/02/28 09:15:31;;;;;;;1.90;1.43;;;5.20;50.10;;;;;;4966112;28;20483;-84
2023/02/28 09:18:16;;;;;;;1.40;1.20;;;5.20;49.10;;;;;;4953438;28;20467;-82
2023/02/28 09:20:46;;;;;;;1.63;1.30;;;5.40;48.50;;;;;;4947842;28;20444;-82
2023/02/28 09:23:13;;;;;;;1.00;1.00;;;5.30;47.40;;;;;;4961862;28;20456;-83
2023/02/28 09:25:55;;;;;;;1.83;1.73;;;5.40;47.90;;;;;;4962718;28;20583;-82
2023/02/28 09:28:55;;;;;;;1.80;1.70;;;5.30;47.70;;;;;;4947096;28;20456;-83
2023/02/28 09:31:39;;;;;;;1.80;1.47;;;5.40;48.40;;;;;;4963597;28;20461;-83
2023/02/28 09:34:50;;;;;;;;;;;;;;;;;;;;;
2023/02/28 09:37:50;;;;;;;;;;;;;;;;;;;;;
2023/02/28 09:41:13;;;;;;;2.73;1.60;;;5.50;47.20;;;;;;4959148;28;20844;-82
2023/02/28 09:43:54;;;;;;;1.17;1.07;;;5.40;47.50;;;;;;4953006;28;20449;-81
2023/02/28 09:46:59;;;;;;;1.20;1.10;;;5.30;47.10;;;;;;4951718;28;20507;-84
2023/02/28 09:49:43;;;;;;;1.40;1.30;;;5.30;47.90;;;;;;4954669;28;20456;-83
2023/02/28 09:56:16;;;;;;;0.97;0.97;;;5.40;46.50;;;;;;4985937;28;20476;-82
2023/02/28 10:03:10;;;;;;;1.80;1.30;;;5.40;47.50;;;;;;4959183;28;20503;-83
2023/02/28 10:06:14;;;;;;;2.43;1.63;;;7.40;46.90;;;;;;4946962;28;20530;-80
2023/02/28 10:09:34;;;;;;;1.70;1.40;;;9.60;43.20;;;;;;4962725;28;20432;-83
2023/02/28 10:16:10;;;;;;;2.33;1.50;;;11.40;37.90;;;;;;4960443;28;21081;-83
2023/02/28 10:19:22;;;;;;;2.43;1.47;;;12.10;36.50;;;;;;4961440;28;20560;-82
2023/02/28 10:22:19;;;;;;;1.80;1.70;;;10.80;36.70;;;;;;4962879;28;20603;-84
2023/02/28 10:29:15;;;;;;;;;;;;;;;;;;;;;
2023/02/28 10:36:39;;;;;;;3.27;2.23;;;8.30;41.50;;;;;;4891818;29;20488;-82
2023/02/28 10:39:51;;;;;;;1.63;1.53;;;8.10;42.40;;;;;;4917158;29;20514;-83
2023/02/28 10:49:56;;;;;;;2.50;2.30;;;7.50;44.20;;;;;;4928847;29;20506;-81
2023/02/28 10:53:18;;;;;;;;;;;;;;;;;;;;;
2023/02/28 10:56:14;;;;;;;1.50;1.40;;;7.90;44.30;;;;;;4906003;29;20813;-82
2023/02/28 10:59:20;;;;;;;2.40;1.67;;;7.40;44.20;;;;;;4893711;29;20458;-84
2023/02/28 11:02:47;;;;;;;1.70;1.60;;;7.40;44.70;;;;;;4907367;29;20445;-82
2023/02/28 11:05:49;;;;;;;7.93;5.73;;;7.40;45.30;;;;;;4817776;29;20587;-81
2023/02/28 11:08:46;;;;;;;3.70;1.80;;;7.60;45.80;;;;;;4832324;29;20937;-83
2023/02/28 11:11:44;;;;;;;2.57;2.20;;;7.50;44.20;;;;;;4831058;29;20467;-83
2023/02/28 11:14:59;;;;;;;2.40;2.17;;;7.40;45.00;;;;;;4821354;29;20450;-84
2023/02/28 11:18:36;;;;;;;1.90;1.67;;;7.20;44.80;;;;;;4835885;29;21130;-84
2023/02/28 11:21:42;;;;;;;;;;;;;;;;;;;;;
2023/02/28 11:30:03;;;;;;;1.67;1.57;;;7.00;44.70;;;;;;3130330;26;20506;-85
2023/02/28 11:32:56;;;;;;;1.80;1.70;;;7.00;45.30;;;;;;4968791;28;21018;-83
2023/02/28 11:35:44;;;;;;;2.13;1.87;;;7.10;45.30;;;;;;4967892;28;20488;-83
2023/02/28 11:38:24;;;;;;;2.70;2.40;;;7.00;44.90;;;;;;4960442;28;20473;-81
2023/02/28 11:40:55;;;;;;;1.73;1.63;;;7.00;45.00;;;;;;4943226;28;20473;-81
2023/02/28 11:44:08;;;;;;;2.53;2.33;;;6.90;45.70;;;;;;4939906;28;20470;-83
2023/02/28 11:47:44;;;;;;;1.90;1.80;;;7.00;46.30;;;;;;4941845;28;21026;-82
2023/02/28 11:51:25;;;;;;;;;;;;;;;;;;;;;
2023/02/28 11:54:50;;;;;;;1.67;1.50;;;7.40;46.30;;;;;;4920750;28;20464;-81
2023/02/28 11:58:09;;;;;;;1.80;1.70;;;7.30;45.50;;;;;;4950240;28;20469;-83
2023/02/28 12:01:26;;;;;;;1.90;1.80;;;7.50;45.30;;;;;;4939910;28;21190;-84
2023/02/28 12:04:24;;;;;;;2.53;2.30;;;7.50;44.60;;;;;;4956750;28;20459;-83
2023/02/28 12:08:05;;;;;;;2.30;2.10;;;7.30;44.10;;;;;;4939867;28;20888;-82
2023/02/28 12:11:33;;;;;;;2.90;2.13;;;7.20;44.20;;;;;;4897580;28;20557;-82
2023/02/28 12:14:32;;;;;;;2.30;2.10;;;7.40;45.20;;;;;;4941007;28;20552;-81
2023/02/28 12:17:34;;;;;;;1.50;1.40;;;7.40;44.70;;;;;;4949587;28;20574;-81
2023/02/28 12:20:26;;;;;;;3.07;2.33;;;7.30;44.20;;;;;;4947142;28;20511;-83
2023/02/28 12:26:38;;;;;;;2.87;2.67;;;7.30;45.40;;;;;;4964431;28;20487;-83
2023/02/28 12:30:15;;;;;;;2.73;2.53;;;7.30;45.00;;;;;;4959661;28;20515;-83
2023/02/28 12:33:16;;;;;;;2.50;2.30;;;7.30;45.50;;;;;;4899402;29;20458;-83
2023/02/28 12:36:17;;;;;;;2.93;2.63;;;7.50;45.90;;;;;;4944915;28;20524;-84
2023/02/28 12:39:32;;;;;;;3.43;2.60;;;7.70;45.80;;;;;;4950929;28;20469;-83
2023/02/28 12:42:46;;;;;;;2.23;2.13;;;7.70;45.60;;;;;;4961184;28;20572;-84
2023/02/28 12:48:47;;;;;;;3.50;2.53;;;8.00;45.30;;;;;;5179427;23;20514;-82
2023/02/28 12:52:20;;;;;;;;;;;;;;;;;;;;;
2023/02/28 12:55:56;;;;;;;;;;;;;;;;;;;;;
2023/02/28 13:03:06;;;;;;;3.30;2.77;;;7.90;45.90;;;;;;4884959;29;20452;-83
2023/02/28 13:06:33;;;;;;;;;;;;;;;;;;;;;
2023/02/28 13:09:43;;;;;;;2.93;2.67;;;8.20;45.70;;;;;;4863656;29;20459;-83
2023/02/28 13:12:56;;;;;;;2.63;2.43;;;8.40;45.10;;;;;;4876519;29;20462;-80
2023/02/28 14:00:27;;;;;;;2.60;2.40;;;10.10;39.80;;;;;;3212121;26;21585;-82
2023/02/28 14:04:11;;;;;;;;;;;;;;;;;;;;;
2023/02/28 14:07:17;;;;;;;3.10;2.80;;;9.70;41.20;;;;;;4946666;28;20496;-83
2023/02/28 14:10:33;;;;;;;2.90;2.70;;;9.30;41.90;;;;;;4941550;28;20465;-83
2023/02/28 14:21:13;;;;;;;3.00;2.80;;;8.60;43.30;;;;;;4943943;28;20465;-84
2023/02/28 14:24:30;;;;;;;3.37;3.07;;;8.30;43.20;;;;;;4928872;28;21105;-82
2023/02/28 14:28:27;;;;;;;3.17;2.70;;;8.20;44.20;;;;;;4899816;29;20473;-83
2023/02/28 14:31:46;;;;;;;3.13;2.60;;;8.30;43.80;;;;;;4859752;29;20468;-82
2023/02/28 14:40:35;;;;;;;3.00;2.80;;;8.00;44.50;;;;;;4953259;26;20476;-82
2023/02/28 14:43:38;;;;;;;4.13;3.63;;;8.10;44.80;;;;;;4948767;28;22001;-84
2023/02/28 14:46:43;;;;;;;3.23;2.93;;;8.10;45.20;;;;;;4939147;28;20493;-83
2023/02/28 14:49:59;;;;;;;2.90;2.70;;;8.10;45.30;;;;;;4952669;28;20480;-84
2023/02/28 14:53:14;;;;;;;3.30;3.07;;;8.00;45.20;;;;;;4925381;28;20464;-83
2023/02/28 14:56:48;;;;;;;3.80;3.50;;;8.20;46.00;;;;;;4954331;28;20500;-84
2023/02/28 14:59:33;;;;;;;4.00;2.67;;;8.30;44.80;;;;;;4947214;28;21338;-83
2023/02/28 15:02:52;;;;;;;3.00;2.70;;;8.20;44.60;;;;;;4946150;28;20539;-83
2023/02/28 15:06:13;;;;;;;3.50;3.20;;;8.30;44.90;;;;;;4939551;28;20488;-83
2023/02/28 15:09:44;;;;;;;3.50;3.20;;;8.20;44.80;;;;;;4912191;28;20987;-82
2023/02/28 15:13:06;;;;;;;4.27;3.37;;;8.30;44.70;;;;;;4946458;28;20474;-82
2023/02/28 15:16:13;;;;;;;3.17;2.97;;;8.10;44.30;;;;;;4959429;28;20485;-83
2023/02/28 15:19:58;;;;;;;;;;;;;;;;;;;;;
2023/02/28 15:23:22;;;;;;;3.50;3.20;;;8.20;44.40;;;;;;4895558;28;20467;-83
2023/02/28 15:26:25;;;;;;;;;;;;;;;;;;;;;
2023/02/28 15:33:15;;;;;;;5.20;4.57;;;8.20;45.10;;;;;;4955660;28;20480;-82
2023/02/28 15:36:14;;;;;;;3.30;3.00;;;8.00;44.80;;;;;;5080144;23;20569;-82
2023/02/28 15:39:45;;;;;;;;;;;;;;;;;;;;;
2023/02/28 15:42:51;;;;;;;;;;;;;;;;;;;;;
2023/02/28 15:49:46;;;;;;;3.70;3.17;;;8.00;44.60;;;;;;4952412;28;20463;-83
2023/02/28 15:52:45;;;;;;;3.67;2.90;;;8.20;45.70;;;;;;4953940;28;20463;-83
2023/02/28 15:55:36;;;;;;;3.30;2.93;;;8.40;46.00;;;;;;4973478;28;20471;-83
2023/02/28 15:58:48;;;;;;;4.37;3.23;;;8.20;44.70;;;;;;4972754;28;20476;-83
2023/02/28 16:02:17;;;;;;;3.90;3.20;;;8.20;45.20;;;;;;4957729;28;20593;-81
2023/02/28 16:05:21;;;;;;;4.00;3.13;;;8.10;45.60;;;;;;4964285;28;20512;-83
2023/02/28 16:08:19;;;;;;;3.50;3.20;;;7.90;45.40;;;;;;4969076;28;20475;-84
2023/02/28 16:11:24;;;;;;;3.47;3.20;;;7.90;46.60;;;;;;4959879;28;20523;-83
2023/02/28 16:13:59;;;;;;;3.50;3.20;;;8.10;46.40;;;;;;4966773;28;20468;-84
2023/02/28 16:16:51;;;;;;;3.70;2.90;;;8.10;46.80;;;;;;4962491;28;20499;-84
2023/02/28 16:19:37;;;;;;;3.27;3.07;;;8.10;46.80;;;;;;4967834;28;20472;-83
2023/02/28 16:22:12;;;;;;;4.53;3.50;;;8.20;46.60;;;;;;4970793;28;20489;-83
2023/02/28 16:24:56;;;;;;;3.13;2.70;;;8.20;46.40;;;;;;4984314;28;20467;-83
2023/02/28 16:27:57;;;;;;;2.70;2.50;;;8.20;46.60;;;;;;4981741;28;20480;-82
2023/02/28 16:30:35;;;;;;;3.43;2.97;;;8.30;46.80;;;;;;4983703;28;20463;-81
2023/02/28 16:33:25;;;;;;;5.60;3.07;;;8.30;46.10;;;;;;4976187;28;20523;-82
2023/02/28 16:40:25;;;;;;;2.90;2.70;;;8.60;46.80;;;;;;4984148;28;20443;-84
2023/02/28 16:43:20;;;;;;;3.00;2.73;;;8.70;46.20;;;;;;4987711;28;20458;-81
2023/02/28 16:46:40;;;;;;;;;;;;;;;;;;;;;
2023/02/28 16:49:33;;;;;;;3.50;3.20;;;8.20;46.50;;;;;;4983458;28;20444;-82
2023/02/28 17:25:53;;;;;;;4.10;3.07;;;7.80;48.40;;;;;;4774154;26;20498;-82
2023/02/28 18:20:14;;;;;;;4.17;3.43;;;7.20;52.30;;;;;;3251627;26;20439;-81
2023/02/28 18:31:14;;;;;;;4.13;3.00;;;7.00;55.00;;;;;;3173697;23;20586;-83
2023/02/28 18:39:31;;;;;;;4.60;4.17;;;6.90;57.00;;;;;;4319044;26;20490;-83
2023/02/28 18:50:13;;;;;;;5.67;3.73;;;6.70;58.10;;;;;;3293264;26;20481;-83
2023/02/28 18:52:56;;;;;;;4.60;4.20;;;6.50;58.70;;;;;;4936238;29;21194;-83
2023/02/28 18:55:46;;;;;;;4.13;3.73;;;6.50;59.40;;;;;;4903280;29;20471;-84
2023/02/28 18:58:22;;;;;;;8.20;4.97;;;6.60;59.70;;;;;;4893503;29;20835;-85
2023/02/28 19:01:09;;;;;;;4.93;4.53;;;6.50;59.70;;;;;;4892373;29;20525;-83
2023/02/28 19:03:50;;;;;;;5.17;4.60;;;6.50;60.20;;;;;;4902576;29;20818;-83
2023/02/28 19:06:43;;;;;;;6.90;4.97;;;6.60;60.50;;;;;;4905294;29;20484;-84
2023/02/28 19:09:58;;;;;;;5.03;4.63;;;6.60;60.90;;;;;;4891067;29;20566;-84
2023/02/28 19:12:46;;;;;;;5.00;4.60;;;6.30;61.00;;;;;;4894901;29;20467;-82
2023/02/28 19:15:19;;;;;;;4.73;4.23;;;6.40;61.90;;;;;;4892745;29;20518;-84
2023/02/28 19:18:01;;;;;;;6.10;5.03;;;6.20;62.20;;;;;;4901795;29;20837;-84
2023/02/28 19:24:03;;;;;;;7.63;4.83;;;6.30;62.60;;;;;;4893521;29;20478;-83
2023/02/28 19:30:12;;;;;;;6.20;4.83;;;6.20;64.00;;;;;;4886626;29;20579;-82
2023/02/28 19:33:04;;;;;;;5.40;4.90;;;6.10;64.00;;;;;;4865463;29;20470;-84
2023/02/28 19:43:58;;;;;;;6.10;4.83;;;6.30;62.80;;;;;;4832982;29;20533;-84
2023/02/28 19:47:40;;;;;;;;;;;;;;;;;;;;;
2023/02/28 19:50:58;;;;;;;7.50;5.80;;;6.30;62.10;;;;;;4816514;29;20466;-81
2023/02/28 19:54:09;;;;;;;5.80;4.87;;;6.30;62.00;;;;;;4830693;29;20533;-83
2023/02/28 20:01:05;;;;;;;7.07;5.70;;;6.10;61.90;;;;;;4793877;29;20537;-84